createdAt,value
2019-05-15T00:00:38.666Z,14.60
2019-05-15T00:03:10.992Z,14.60
2019-05-15T00:05:43.419Z,14.60
2019-05-15T00:08:18.222Z,14.50
2019-05-15T00:10:50.021Z,14.50
2019-05-15T00:13:22.454Z,14.50
2019-05-15T00:15:55.040Z,14.40
2019-05-15T00:18:28.119Z,14.40
2019-05-15T00:21:00.758Z,14.40
2019-05-15T00:23:33.171Z,14.30
2019-05-15T00:26:05.681Z,14.30
2019-05-15T00:28:39.380Z,14.30
2019-05-15T00:31:11.918Z,14.30
2019-05-15T00:33:44.404Z,14.30
2019-05-15T00:36:19.038Z,14.30
2019-05-15T00:38:51.009Z,14.30
2019-05-15T00:41:23.458Z,14.20
2019-05-15T00:43:58.326Z,14.20
2019-05-15T00:46:29.999Z,14.20
2019-05-15T00:49:02.410Z,14.20
2019-05-15T00:51:34.934Z,14.20
2019-05-15T00:54:08.426Z,14.20
2019-05-15T00:56:41.069Z,14.20
2019-05-15T00:59:24.113Z,14.20
2019-05-15T01:01:48.779Z,14.10
2019-05-15T01:04:21.397Z,14.10
2019-05-15T01:06:53.826Z,14.10
2019-05-15T01:09:26.333Z,14.10
2019-05-15T01:11:58.810Z,14.10
2019-05-15T01:14:31.294Z,14.10
2019-05-15T01:17:03.727Z,14.10
2019-05-15T01:19:37.920Z,14.00
2019-05-15T01:22:10.207Z,14.00
2019-05-15T01:24:42.627Z,14.00
2019-05-15T01:27:15.064Z,13.90
2019-05-15T01:29:49.309Z,13.90
2019-05-15T01:32:21.609Z,13.90
2019-05-15T01:34:53.947Z,13.90
2019-05-15T01:37:28.179Z,13.90
2019-05-15T01:40:00.677Z,13.90
2019-05-15T01:42:33.114Z,13.90
2019-05-15T01:45:05.550Z,13.90
2019-05-15T01:47:38.935Z,13.90
2019-05-15T01:50:11.663Z,13.90
2019-05-15T01:52:44.030Z,13.90
2019-05-15T01:55:18.169Z,13.80
2019-05-15T01:57:50.754Z,13.80
2019-05-15T02:00:23.168Z,13.70
2019-05-15T02:02:55.596Z,13.70
2019-05-15T02:05:28.348Z,13.60
2019-05-15T02:08:00.933Z,13.60
2019-05-15T02:10:33.363Z,13.60
2019-05-15T02:13:08.318Z,13.60
2019-05-15T02:15:39.934Z,13.60
2019-05-15T02:18:12.363Z,13.60
2019-05-15T02:20:44.801Z,13.50
2019-05-15T02:23:18.900Z,13.50
2019-05-15T02:25:51.281Z,13.50
2019-05-15T02:28:23.720Z,13.50
2019-05-15T02:30:58.691Z,13.40
2019-05-15T02:33:31.323Z,13.40
2019-05-15T02:36:03.741Z,13.40
2019-05-15T02:38:40.436Z,13.40
2019-05-15T02:41:10.454Z,13.40
2019-05-15T02:43:42.871Z,13.40
2019-05-15T02:46:15.288Z,13.40
2019-05-15T02:48:48.964Z,13.40
2019-05-15T02:51:21.621Z,13.30
2019-05-15T02:53:54.084Z,13.30
2019-05-15T02:56:29.102Z,13.30
2019-05-15T02:59:00.559Z,13.30
2019-05-15T03:01:32.992Z,13.40
2019-05-15T03:04:09.038Z,13.40
2019-05-15T03:06:39.736Z,13.40
2019-05-15T03:09:12.188Z,13.40
2019-05-15T03:11:44.621Z,13.40
2019-05-15T03:14:17.092Z,13.40
2019-05-15T03:16:49.912Z,13.40
2019-05-15T03:19:22.433Z,13.30
2019-05-15T03:21:54.836Z,13.30
2019-05-15T03:24:28.879Z,13.30
2019-05-15T03:27:01.626Z,13.20
2019-05-15T03:29:34.064Z,13.20
2019-05-15T03:32:23.842Z,13.20
2019-05-15T03:34:46.913Z,13.20
2019-05-15T03:37:15.010Z,13.10
2019-05-15T03:39:51.594Z,13.10
2019-05-15T03:42:21.633Z,13.10
2019-05-15T03:44:54.058Z,13.10
2019-05-15T03:47:29.945Z,13.00
2019-05-15T03:50:00.510Z,13.00
2019-05-15T03:52:32.910Z,12.90
2019-05-15T03:55:05.683Z,12.90
2019-05-15T03:57:40.115Z,12.90
2019-05-15T04:00:12.240Z,12.80
2019-05-15T04:02:44.658Z,12.80
2019-05-15T04:05:19.685Z,12.80
2019-05-15T04:07:52.172Z,12.70
2019-05-15T04:10:24.606Z,12.70
2019-05-15T04:12:59.930Z,12.70
2019-05-15T04:15:31.159Z,12.60
2019-05-15T04:18:03.558Z,12.60
2019-05-15T04:20:36.000Z,12.60
2019-05-15T04:23:10.258Z,12.70
2019-05-15T04:25:42.605Z,12.70
2019-05-15T04:28:15.008Z,12.70
2019-05-15T04:30:49.455Z,12.80
2019-05-15T04:33:21.552Z,12.90
2019-05-15T04:35:53.991Z,13.00
2019-05-15T04:38:28.944Z,13.00
2019-05-15T04:41:01.193Z,13.10
2019-05-15T04:43:41.459Z,13.20
2019-05-15T04:46:09.853Z,13.20
2019-05-15T04:48:41.862Z,13.30
2019-05-15T04:51:14.295Z,13.30
2019-05-15T04:53:49.935Z,13.40
2019-05-15T04:56:20.840Z,13.40
2019-05-15T04:58:53.660Z,13.50
2019-05-15T05:01:28.903Z,13.60
2019-05-15T05:04:00.383Z,13.70
2019-05-15T05:06:32.822Z,13.70
2019-05-15T05:09:09.084Z,13.70
2019-05-15T05:11:40.470Z,13.70
2019-05-15T05:14:12.904Z,13.80
2019-05-15T05:16:45.327Z,13.80
2019-05-15T05:19:19.583Z,13.80
2019-05-15T05:21:51.841Z,13.90
2019-05-15T05:24:24.611Z,13.90
2019-05-15T05:26:58.104Z,14.00
2019-05-15T05:29:30.665Z,14.00
2019-05-15T05:32:04.957Z,14.00
2019-05-15T05:34:39.196Z,14.10
2019-05-15T05:37:11.847Z,14.10
2019-05-15T05:39:45.160Z,14.10
2019-05-15T05:42:18.483Z,14.20
2019-05-15T05:44:51.062Z,14.20
2019-05-15T05:47:23.497Z,14.30
2019-05-15T05:49:58.099Z,14.40
2019-05-15T05:52:30.042Z,14.40
2019-05-15T05:55:02.452Z,14.50
2019-05-15T05:57:34.947Z,14.60
2019-05-15T06:00:09.316Z,14.70
2019-05-15T06:02:47.799Z,14.70
2019-05-15T06:05:18.832Z,14.80
2019-05-15T06:07:50.020Z,14.90
2019-05-15T06:10:22.462Z,15.00
2019-05-15T06:12:54.922Z,15.00
2019-05-15T06:15:28.565Z,15.10
2019-05-15T06:18:01.445Z,15.20
2019-05-15T06:20:33.865Z,15.20
2019-05-15T06:23:08.366Z,15.30
2019-05-15T06:25:40.408Z,15.30
2019-05-15T06:28:12.890Z,15.40
2019-05-15T06:30:45.296Z,15.50
2019-05-15T06:33:18.733Z,15.50
2019-05-15T06:35:52.494Z,15.60
2019-05-15T06:38:25.049Z,15.70
2019-05-15T06:40:58.271Z,15.70
2019-05-15T06:43:30.913Z,15.80
2019-05-15T06:46:03.330Z,15.90
2019-05-15T06:48:37.831Z,15.90
2019-05-15T06:51:09.967Z,16.00
2019-05-15T06:53:42.660Z,16.10
2019-05-15T06:56:15.074Z,16.10
2019-05-15T06:58:48.733Z,16.20
2019-05-15T07:01:21.372Z,16.30
2019-05-15T07:03:53.808Z,16.40
2019-05-15T07:06:28.571Z,16.40
2019-05-15T07:09:00.592Z,16.40
2019-05-15T07:11:34.598Z,16.50
2019-05-15T07:14:08.920Z,16.50
2019-05-15T07:16:41.453Z,16.60
2019-05-15T07:19:13.990Z,16.60
2019-05-15T07:21:48.523Z,16.70
2019-05-15T07:24:20.480Z,16.70
2019-05-15T07:26:52.895Z,16.80
2019-05-15T07:29:25.754Z,16.80
2019-05-15T07:31:58.576Z,16.90
2019-05-15T07:34:31.377Z,16.90
2019-05-15T07:37:03.785Z,17.00
2019-05-15T07:39:38.202Z,17.00
2019-05-15T07:42:10.358Z,17.10
2019-05-15T07:44:48.190Z,17.10
2019-05-15T07:47:20.375Z,17.20
2019-05-15T07:49:52.804Z,17.20
2019-05-15T07:52:25.255Z,17.20
2019-05-15T07:54:58.287Z,17.30
2019-05-15T07:57:30.900Z,17.30
2019-05-15T08:00:03.339Z,17.40
2019-05-15T08:02:37.891Z,17.50
2019-05-15T08:05:09.982Z,17.50
2019-05-15T08:07:42.539Z,17.60
2019-05-15T08:10:18.150Z,17.70
2019-05-15T08:12:49.967Z,17.70
2019-05-15T08:15:22.492Z,17.80
2019-05-15T08:18:05.511Z,17.90
2019-05-15T08:20:30.656Z,18.00
2019-05-15T08:23:03.055Z,18.00
2019-05-15T08:25:35.621Z,18.10
2019-05-15T08:28:08.732Z,18.20
2019-05-15T08:30:41.826Z,18.30
2019-05-15T08:33:14.298Z,18.40
2019-05-15T08:35:51.148Z,18.50
2019-05-15T08:38:20.857Z,18.60
2019-05-15T08:40:53.284Z,18.80
2019-05-15T08:43:28.422Z,18.90
2019-05-15T08:45:59.747Z,19.10
2019-05-15T08:48:32.903Z,19.40
2019-05-15T08:51:05.759Z,19.70
2019-05-15T08:53:38.248Z,20.00
2019-05-15T08:56:10.612Z,20.30
2019-05-15T08:58:43.035Z,20.60
2019-05-15T09:01:15.490Z,21.00
2019-05-15T09:03:49.165Z,21.30
2019-05-15T09:06:23.181Z,21.70
2019-05-15T09:08:58.330Z,21.90
2019-05-15T09:11:30.013Z,22.20
2019-05-15T09:14:02.494Z,22.60
2019-05-15T09:16:34.938Z,22.90
2019-05-15T09:19:08.363Z,23.20
2019-05-15T09:21:40.971Z,23.40
2019-05-15T09:24:13.378Z,23.70
2019-05-15T09:26:48.509Z,23.80
2019-05-15T09:29:20.098Z,23.90
2019-05-15T09:31:52.519Z,23.90
2019-05-15T09:34:25.022Z,23.90
2019-05-15T09:37:00.011Z,24.00
2019-05-15T09:39:31.634Z,24.20
2019-05-15T09:42:04.070Z,24.60
2019-05-15T09:44:36.473Z,24.90
2019-05-15T09:47:09.254Z,25.10
2019-05-15T09:49:41.799Z,25.40
2019-05-15T09:52:17.277Z,25.60
2019-05-15T09:54:49.483Z,25.80
2019-05-15T09:57:21.954Z,26.00
2019-05-15T09:59:54.366Z,26.10
2019-05-15T10:02:28.456Z,26.20
2019-05-15T10:05:06.397Z,26.20
2019-05-15T10:07:35.296Z,26.40
2019-05-15T10:10:08.735Z,26.70
2019-05-15T10:12:41.509Z,26.80
2019-05-15T10:15:14.099Z,26.80
2019-05-15T10:17:50.297Z,26.80
2019-05-15T10:20:21.366Z,26.90
2019-05-15T10:22:54.896Z,27.00
2019-05-15T10:25:28.123Z,27.20
2019-05-15T10:28:00.611Z,27.30
2019-05-15T10:30:33.013Z,27.50
2019-05-15T10:33:05.505Z,27.60
2019-05-15T10:35:39.330Z,27.60
2019-05-15T10:38:11.949Z,27.40
2019-05-15T10:40:58.555Z,27.20
2019-05-15T10:43:20.512Z,26.80
2019-05-15T10:45:54.651Z,26.40
2019-05-15T10:48:29.236Z,26.10
2019-05-15T10:51:06.192Z,25.70
2019-05-15T10:53:34.939Z,25.40
2019-05-15T10:56:08.929Z,25.00
2019-05-15T10:58:41.562Z,24.70
2019-05-15T11:01:14.047Z,24.30
2019-05-15T11:03:49.474Z,24.00
2019-05-15T11:06:21.142Z,23.80
2019-05-15T11:08:53.586Z,23.50
2019-05-15T11:11:25.986Z,23.20
2019-05-15T11:14:00.536Z,23.00
2019-05-15T11:16:32.544Z,22.80
2019-05-15T11:19:08.036Z,22.60
2019-05-15T11:21:43.391Z,22.40
2019-05-15T11:24:14.402Z,22.20
2019-05-15T11:26:49.901Z,22.10
2019-05-15T11:29:20.940Z,21.90
2019-05-15T11:31:53.343Z,21.80
2019-05-15T11:34:25.747Z,21.60
2019-05-15T11:36:59.344Z,21.50
2019-05-15T11:39:32.027Z,21.40
2019-05-15T11:42:04.426Z,21.30
2019-05-15T11:44:38.881Z,21.20
2019-05-15T11:47:10.972Z,21.10
2019-05-15T11:49:43.402Z,21.00
2019-05-15T11:52:18.606Z,20.90
2019-05-15T11:54:49.936Z,20.80
2019-05-15T11:57:37.287Z,20.80
2019-05-15T11:59:59.602Z,20.70
2019-05-15T12:02:30.504Z,20.70
2019-05-15T12:05:02.929Z,20.60
2019-05-15T12:07:35.337Z,20.50
2019-05-15T12:10:10.584Z,20.50
2019-05-15T12:12:41.880Z,20.50
2019-05-15T12:15:14.436Z,20.40
2019-05-15T12:17:48.464Z,20.40
2019-05-15T12:20:21.207Z,20.40
2019-05-15T12:22:53.604Z,20.30
2019-05-15T12:25:31.457Z,20.30
2019-05-15T12:28:00.135Z,20.30
2019-05-15T12:30:32.577Z,20.20
2019-05-15T12:33:04.978Z,20.20
2019-05-15T12:35:39.601Z,20.10
2019-05-15T12:38:11.585Z,20.10
2019-05-15T13:01:18.422Z,19.90
2019-05-15T13:03:51.361Z,19.90
2019-05-15T13:06:23.782Z,19.90
2019-05-15T13:08:56.261Z,19.90
2019-05-15T13:11:28.751Z,19.90
2019-05-15T13:14:01.172Z,20.00
2019-05-15T13:16:33.677Z,20.00
2019-05-15T13:19:06.080Z,20.00
2019-05-15T13:21:38.502Z,20.00
2019-05-15T13:24:10.928Z,20.00
2019-05-15T13:26:43.330Z,19.90
2019-05-15T13:29:18.022Z,20.00
2019-05-15T13:31:49.843Z,20.00
2019-05-15T13:34:22.245Z,19.90
2019-05-15T13:36:54.667Z,19.90
2019-05-15T13:39:28.402Z,19.90
2019-05-15T13:42:01.077Z,19.90
2019-05-15T13:44:33.490Z,19.90
2019-05-15T13:47:08.469Z,19.90
2019-05-15T13:49:40.011Z,19.90
2019-05-15T13:52:12.447Z,19.90
2019-05-15T13:54:44.838Z,19.90
2019-05-15T13:57:18.039Z,19.90
2019-05-15T13:59:50.668Z,19.90
2019-05-15T14:02:23.097Z,19.90
2019-05-15T14:04:58.133Z,19.90
2019-05-15T14:07:44.709Z,19.90
2019-05-15T14:10:03.812Z,19.90
2019-05-15T14:12:38.235Z,19.90
2019-05-15T14:15:10.478Z,19.90
2019-05-15T14:17:42.904Z,19.90
2019-05-15T14:20:16.407Z,19.90
2019-05-15T14:22:48.899Z,19.90
2019-05-15T14:25:21.308Z,19.90
2019-05-15T14:27:53.797Z,19.90
2019-05-15T14:30:29.008Z,19.90
2019-05-15T14:33:00.681Z,20.00
2019-05-15T14:35:33.277Z,20.00
2019-05-15T14:38:06.886Z,20.00
2019-05-15T14:40:39.930Z,19.90
2019-05-15T14:43:12.351Z,20.00
2019-05-15T14:45:45.055Z,20.00
2019-05-15T14:48:18.997Z,20.00
2019-05-15T14:50:51.578Z,20.00
2019-05-15T14:53:24.010Z,20.00
2019-05-15T14:56:00.016Z,20.00
2019-05-15T14:58:31.244Z,20.00
2019-05-15T15:01:04.458Z,20.00
2019-05-15T15:03:38.099Z,20.00
2019-05-15T15:06:10.563Z,20.00
2019-05-15T15:08:42.983Z,20.00
2019-05-15T15:11:17.790Z,20.00
2019-05-15T15:13:50.757Z,20.00
2019-05-15T15:16:23.158Z,20.00
2019-05-15T15:18:55.499Z,20.10
2019-05-15T15:21:29.262Z,20.00
2019-05-15T15:24:01.911Z,20.00
2019-05-15T15:26:34.311Z,20.00
2019-05-15T15:29:08.488Z,20.00
2019-05-15T15:31:41.241Z,20.00
2019-05-15T15:34:13.929Z,20.00
2019-05-15T15:36:48.332Z,20.00
2019-05-15T15:39:20.379Z,20.00
2019-05-15T15:41:52.914Z,19.90
2019-05-15T15:44:25.336Z,20.00
2019-05-15T15:46:59.239Z,19.90
2019-05-15T15:49:32.099Z,19.90
2019-05-15T15:52:04.570Z,19.90
2019-05-15T15:54:39.546Z,19.90
2019-05-15T15:57:11.399Z,19.90
2019-05-15T15:59:43.827Z,19.90
2019-05-15T16:02:18.570Z,19.90
2019-05-15T16:04:52.020Z,19.90
2019-05-15T16:07:24.411Z,19.90
2019-05-15T16:09:58.894Z,19.60
2019-05-15T16:12:31.388Z,19.60
2019-05-15T16:15:03.890Z,19.70
2019-05-15T16:17:38.541Z,19.80
2019-05-15T16:20:10.377Z,19.80
2019-05-15T16:22:43.230Z,19.80
2019-05-15T16:25:17.916Z,19.90
2019-05-15T16:27:49.954Z,19.90
2019-05-15T16:30:22.477Z,19.90
2019-05-15T16:32:55.149Z,19.90
2019-05-15T16:35:28.989Z,19.90
2019-05-15T16:38:02.609Z,19.80
2019-05-15T16:40:35.028Z,19.80
2019-05-15T16:43:07.429Z,19.80
2019-05-15T16:45:39.853Z,19.80
2019-05-15T16:48:12.260Z,19.80
2019-05-15T16:50:44.695Z,19.80
2019-05-15T16:53:18.276Z,19.80
2019-05-15T16:55:50.896Z,19.70
2019-05-15T16:58:23.304Z,19.70
2019-05-15T17:00:58.564Z,19.70
2019-05-15T17:03:31.053Z,19.70
2019-05-15T17:06:03.478Z,19.70
2019-05-15T17:08:37.887Z,19.60
2019-05-15T17:11:10.175Z,19.60
2019-05-15T17:13:42.580Z,19.60
2019-05-15T17:16:15.115Z,19.50
2019-05-15T17:18:48.633Z,19.50
2019-05-15T17:21:21.427Z,19.50
2019-05-15T17:23:53.893Z,19.40
2019-05-15T17:26:28.729Z,19.40
2019-05-15T17:29:00.474Z,19.30
2019-05-15T17:31:33.065Z,19.40
2019-05-15T17:34:05.640Z,19.30
2019-05-15T17:36:38.384Z,19.30
2019-05-15T17:39:10.857Z,19.30
2019-05-15T17:41:43.730Z,19.20
2019-05-15T17:44:16.251Z,19.20
2019-05-15T17:46:49.082Z,19.20
2019-05-15T17:49:21.560Z,19.10
2019-05-15T17:51:53.964Z,19.10
2019-05-15T17:54:28.617Z,19.10
2019-05-15T17:57:00.752Z,19.10
2019-05-15T17:59:33.210Z,19.00
2019-05-15T18:02:08.381Z,19.00
2019-05-15T18:04:40.154Z,19.00
2019-05-15T18:07:12.618Z,19.00
2019-05-15T18:09:51.540Z,18.90
2019-05-15T18:12:19.699Z,18.90
2019-05-15T18:14:52.264Z,18.80
2019-05-15T18:17:24.856Z,18.80
2019-05-15T18:19:58.087Z,18.80
2019-05-15T18:22:30.990Z,18.70
2019-05-15T18:25:04.907Z,18.80
2019-05-15T18:27:39.156Z,18.70
2019-05-15T18:30:11.991Z,18.70
2019-05-15T18:32:44.612Z,18.60
2019-05-15T18:35:18.761Z,18.70
2019-05-15T18:37:51.501Z,18.60
2019-05-15T18:40:23.976Z,18.60
2019-05-15T18:42:58.963Z,18.60
2019-05-15T18:45:30.481Z,18.60
2019-05-15T18:48:03.001Z,18.60
2019-05-15T18:50:37.658Z,18.50
2019-05-15T18:53:09.662Z,18.50
2019-05-15T18:55:42.060Z,18.50
2019-05-15T18:58:14.543Z,18.50
2019-05-15T19:00:48.892Z,18.50
2019-05-15T19:03:22.865Z,18.50
2019-05-15T19:05:55.520Z,18.50
2019-05-15T19:08:28.374Z,18.40
2019-05-15T19:11:01.093Z,18.40
2019-05-15T19:13:33.514Z,18.40
2019-05-15T19:16:06.051Z,18.40
2019-05-15T19:18:39.546Z,18.30
2019-05-15T19:21:12.018Z,18.40
2019-05-15T19:23:44.525Z,18.30
2019-05-15T19:26:18.206Z,18.30
2019-05-15T19:28:50.908Z,18.30
2019-05-15T19:31:27.270Z,18.30
2019-05-15T19:33:57.515Z,18.20
2019-05-15T19:36:31.467Z,18.20
2019-05-15T19:39:04.693Z,18.20
2019-05-15T19:41:38.263Z,18.10
2019-05-15T19:44:11.931Z,18.10
2019-05-15T19:46:44.396Z,18.10
2019-05-15T19:49:17.940Z,18.10
2019-05-15T19:51:50.384Z,18.00
2019-05-15T19:54:22.823Z,18.00
2019-05-15T19:56:55.140Z,18.00
2019-05-15T19:59:29.469Z,18.00
2019-05-15T20:02:01.743Z,18.00
2019-05-15T20:04:34.224Z,17.90
2019-05-15T20:07:08.042Z,17.90
2019-05-15T20:09:40.704Z,18.00
2019-05-15T20:12:13.099Z,17.90
2019-05-15T20:14:45.897Z,17.90
2019-05-15T20:17:18.431Z,17.90
2019-05-15T20:19:51.131Z,17.90
2019-05-15T20:22:23.532Z,17.80
2019-05-15T20:24:58.342Z,17.80
2019-05-15T20:27:30.138Z,17.80
2019-05-15T20:30:02.557Z,17.80
2019-05-15T20:32:35.151Z,17.70
2019-05-15T20:35:08.657Z,17.70
2019-05-15T20:37:42.038Z,17.60
2019-05-15T20:40:17.944Z,17.60
2019-05-15T20:42:49.793Z,17.60
2019-05-15T20:45:22.262Z,17.50
2019-05-15T20:47:54.666Z,17.50
2019-05-15T20:50:28.216Z,17.50
2019-05-15T20:53:00.952Z,17.50
2019-05-15T20:55:33.375Z,17.50
2019-05-15T20:58:07.897Z,17.50
2019-05-15T21:00:41.210Z,17.50
2019-05-15T21:03:13.677Z,17.50
2019-05-15T21:05:46.267Z,17.50
2019-05-15T21:08:18.731Z,17.50
2019-05-15T21:10:52.232Z,17.50
2019-05-15T21:13:24.695Z,17.50
2019-05-15T21:15:58.934Z,17.50
2019-05-15T21:18:31.234Z,17.40
2019-05-15T21:21:03.732Z,17.40
2019-05-15T21:23:38.503Z,17.40
2019-05-15T21:26:11.075Z,17.40
2019-05-15T21:28:44.110Z,17.40
2019-05-15T21:31:21.299Z,17.40
2019-05-15T21:33:50.928Z,17.40
2019-05-15T21:36:23.379Z,17.40
2019-05-15T21:38:55.776Z,17.40
2019-05-15T21:41:28.198Z,17.40
2019-05-15T21:44:00.873Z,17.40
2019-05-15T21:46:33.291Z,17.40
2019-05-15T21:49:05.699Z,17.40
2019-05-15T21:51:38.698Z,17.40
2019-05-15T21:54:11.091Z,17.40
2019-05-15T21:56:43.687Z,17.40
2019-05-15T21:59:18.659Z,17.40
2019-05-15T22:01:50.198Z,17.40
2019-05-15T22:04:22.674Z,17.40
2019-05-15T22:06:55.132Z,17.40
2019-05-15T22:09:29.075Z,17.40
2019-05-15T22:12:01.911Z,17.40
2019-05-15T22:14:34.409Z,17.40
2019-05-15T22:17:09.233Z,17.40
2019-05-15T22:19:41.048Z,17.40
2019-05-15T22:22:13.644Z,17.40
2019-05-15T22:24:48.231Z,17.40
2019-05-15T22:27:21.038Z,17.40
2019-05-15T22:29:53.638Z,17.40
2019-05-15T22:32:26.073Z,17.40
2019-05-15T22:35:06.983Z,17.40
2019-05-15T22:37:32.593Z,17.40
2019-05-15T22:40:05.068Z,17.40
2019-05-15T22:42:39.084Z,17.40
2019-05-15T22:45:11.969Z,17.30
2019-05-15T22:47:44.696Z,17.30
2019-05-15T22:50:18.919Z,17.30
2019-05-15T22:52:51.206Z,17.30
2019-05-15T22:55:23.598Z,17.30
2019-05-15T22:57:58.396Z,17.30
2019-05-15T23:00:30.135Z,17.20
2019-05-15T23:03:02.545Z,17.20
2019-05-15T23:05:34.939Z,17.20
2019-05-15T23:08:07.358Z,17.10
2019-05-15T23:10:39.756Z,17.10
2019-05-15T23:13:12.175Z,17.00
2019-05-15T23:15:44.614Z,17.00
2019-05-15T23:18:17.897Z,16.90
2019-05-15T23:20:50.411Z,16.90
2019-05-15T23:23:22.832Z,16.90
2019-05-15T23:25:55.221Z,16.90
2019-05-15T23:28:28.107Z,16.80
2019-05-15T23:31:00.745Z,16.80
2019-05-15T23:33:33.167Z,16.80
2019-05-15T23:36:05.500Z,16.80
2019-05-15T23:38:38.487Z,16.70
2019-05-15T23:41:10.983Z,16.70
2019-05-15T23:43:43.400Z,16.70
2019-05-15T23:46:18.209Z,16.70
2019-05-15T23:48:49.912Z,16.70
2019-05-15T23:51:22.294Z,16.70
2019-05-15T23:53:54.741Z,16.70
2019-05-15T23:56:29.026Z,16.70
2019-05-15T23:59:01.243Z,16.80
